Nearby METAR Reports

 

KSNA - John Wayne Airport, California, USA
Distance from station: NE 2mi, 3km
Updated: Sun, 07-Aug-2022 7:53am PDT
Few Clouds
Few Clouds
 Wind from W
Wind: W 3 mph , 6 km/h
Temperature: 72°F , 22°C
Dew Point: 59°F , 15°C
Humidity: 65%
Barometer: 29.90 inHg , 1012.5 hPa
Clouds: Few Clouds
Visibility: 10 miles , 16 km
Cloud details: Few Clouds 25000 ft
2022/08/07 14:53 KSNA 071453Z 28003KT 10SM FEW250 22/15 A2990 RMK AO2 SLP123 T02220150 51013
KSLI - Los Alamitos Aaf, California, USA
Distance from station: NW 11mi, 18km
Updated: Sun, 07-Aug-2022 7:58am PDT
Few Clouds
Few Clouds
 Wind from calm
Wind: Calm
Temperature: 70°F , 21°C
Dew Point: 63°F , 17°C
Humidity: 78%
Barometer: 29.89 inHg , 1012.2 hPa
Clouds: Few Clouds
Visibility: 10 miles , 16 km
Cloud details: Few Clouds 6000 ft
Few Clouds 25000 ft
2022/08/07 14:58 KSLI 071458Z 00000KT 10SM FEW060 FEW250 21/17 A2989 RMK AO2A SLP125 T02140166 52014
 
KFUL - Fullerton Muni, California, USA
Distance from station: NNW 16mi, 26km
Updated: Sun, 07-Aug-2022 7:53am PDT
Few Clouds
Few Clouds
 Wind from calm
Wind: Calm
Temperature: 72°F , 22°C
Dew Point: 59°F , 15°C
Humidity: 65%
Barometer: 29.90 inHg , 1012.5 hPa
Clouds: Few Clouds
Visibility: 10 miles , 16 km
Cloud details: Few Clouds 25000 ft
2022/08/07 14:53 KFUL 071453Z 00000KT 10SM FEW250 22/15 A2990 RMK AO2 SLP125 T02170150 51014
KLGB - Long Beach Muni, California, USA
Distance from station: NW 19mi, 30km
Updated: Sun, 07-Aug-2022 7:53am PDT
Clear
Clear
 Wind from calm
Wind: Calm
Temperature: 70°F , 21°C
Dew Point: 61°F , 16°C
Humidity: 73%
Barometer: 29.91 inHg , 1012.9 hPa
Clouds: Clear
Visibility: 10 miles , 16 km
2022/08/07 14:53 KLGB 071453Z 00000KT 10SM CLR 21/16 A2991 RMK AO2 SLP127 T02110156 50013
 
KAJO - Corona Muni, California, USA
Distance from station: NE 24mi, 39km
Updated: Sun, 07-Aug-2022 7:56am PDT
Clear
Clear
 Wind from E
Wind: E 5 mph , 7 km/h
Temperature: 73°F , 23°C
Dew Point: 54°F , 12°C
Humidity: 50%
Barometer: 29.94 inHg , 1013.9 hPa
Clouds: Clear
Visibility: 10 miles , 16 km
2022/08/07 14:56 KAJO 071456Z AUTO 09004KT 10SM CLR 23/12 A2994 RMK AO2 SLP130 T02280122 51018
KTOA - Torrance Municip, California, USA
Distance from station: WNW 26mi, 42km
Updated: Sun, 07-Aug-2022 7:47am PDT
Few Clouds
Few Clouds
 Wind from calm
Wind: Calm
Temperature: 72°F , 22°C
Dew Point: 63°F , 17°C
Humidity: 73%
Barometer: 29.91 inHg , 1012.9 hPa
Clouds: Few Clouds
Visibility: 10 miles , 16 km
Cloud details: Few Clouds 5000 ft
2022/08/07 14:47 KTOA 071447Z 00000KT 10SM FEW050 22/17 A2991
 
KCNO - Chino, California, USA
Distance from station: NE 28mi, 45km
Updated: Sun, 07-Aug-2022 7:53am PDT
Partly cloudy
Partly cloudy
 Wind from calm
Wind: Calm
Temperature: 75°F , 24°C
Dew Point: 55°F , 13°C
Humidity: 50%
Barometer: 29.93 inHg , 1013.5 hPa
Clouds: Partly cloudy
Visibility: 10 miles , 16 km
Cloud details: Partly cloudy 20000 ft
2022/08/07 14:53 KCNO 071453Z 00000KT 10SM SCT200 24/13 A2993 RMK AO2 SLP128 T02440128 51013
KEMT - El Monte, California, USA
Distance from station: NNW 30mi, 48km
Updated: Sat, 06-Aug-2022 6:47pm PDT
NOT Current
Clear
Clear
 Wind from SSW
Wind: SSW 8 mph , 13 km/h
Temperature: 82°F , 28°C
Dew Point: 54°F , 12°C
Humidity: 37%
Barometer: 29.84 inHg , 1010.5 hPa
Clouds: Clear
Visibility: 10 miles , 16 km
2022/08/07 01:47 KEMT 070147Z 20007KT 10SM CLR 28/12 A2984
 
KHHR - Hawthorne, California, USA
Distance from station: NW 31mi, 50km
Updated: Sun, 07-Aug-2022 7:53am PDT
Clear
Clear
 Wind from calm
Wind: Calm
Temperature: 70°F , 21°C
Dew Point: 61°F , 16°C
Humidity: 73%
Barometer: 29.91 inHg , 1012.9 hPa
Clouds: Clear
Visibility: 10 miles , 16 km
2022/08/07 14:53 KHHR 071453Z 00000KT 10SM CLR 21/16 A2991 RMK AO2 SLP128 T02060161 51013 $
KPOC - La Verne/Bracket, California, USA
Distance from station: NNE 32mi, 52km
Updated: Sun, 07-Aug-2022 7:47am PDT
Clear
Clear
 Wind from calm
Wind: Calm
Temperature: 79°F , 26°C
Dew Point: 54°F , 12°C
Humidity: 42%
Barometer: 29.94 inHg , 1013.9 hPa
Clouds: Clear
Visibility: 10 miles , 16 km
2022/08/07 14:47 KPOC 071447Z 00000KT 10SM CLR 26/12 A2994
 
KONT - Ontario, California, USA
Distance from station: NNE 33mi, 53km
Updated: Sun, 07-Aug-2022 7:53am PDT
Few Clouds
Few Clouds
 Wind from varies
Wind: varies 5 mph , 7 km/h
Temperature: 79°F , 26°C
Dew Point: 55°F , 13°C
Humidity: 45%
Barometer: 29.92 inHg , 1013.2 hPa
Clouds: Few Clouds
Visibility: 10 miles , 16 km
Cloud details: Few Clouds 12000 ft
Few Clouds 25000 ft
2022/08/07 14:53 KONT 071453Z VRB04KT 10SM FEW120 FEW250 26/13 A2992 RMK AO2 SLP114 T02560128 51012 $
KRAL - Riverside, California, USA
Distance from station: NE 33mi, 53km
Updated: Sun, 07-Aug-2022 7:53am PDT
Clear
Clear
 Wind from calm
Wind: Calm
Temperature: 75°F , 24°C
Dew Point: 54°F , 12°C
Humidity: 47%
Barometer: 29.94 inHg , 1013.9 hPa
Clouds: Clear
Visibility: 10 miles , 16 km
2022/08/07 14:53 KRAL 071453Z 00000KT 10SM CLR 24/12 A2994 RMK AO2 SLP121 T02390117 53017
 
KCQT - USC/Los Angeles, California, USA
Distance from station: NW 34mi, 54km
Updated: Sun, 07-Aug-2022 7:47am PDT
Clear
Clear
 Wind from calm
Wind: Calm
Temperature: 70°F , 21°C
Dew Point: 59°F , 15°C
Humidity: 69%
Barometer: 29.90 inHg , 1012.5 hPa
Clouds: Clear
Visibility: 10 miles , 16 km
2022/08/07 14:47 KCQT 071447Z AUTO 00000KT 10SM CLR 21/15 A2990 RMK AO2 SLP122 T02110150 51010
KLAX - LAX/Los Angeles, California, USA
Distance from station: NW 34mi, 55km
Updated: Sun, 07-Aug-2022 7:53am PDT
Few Clouds
Few Clouds
 Wind from NNW
Wind: NNW 3 mph , 6 km/h
Temperature: 70°F , 21°C
Dew Point: 61°F , 16°C
Humidity: 73%
Barometer: 29.91 inHg , 1012.9 hPa
Clouds: Few Clouds
Visibility: 10 miles , 16 km
Cloud details: Few Clouds 22000 ft
2022/08/07 14:53 KLAX 071453Z 33003KT 10SM FEW220 21/16 A2991 RMK AO2 SLP126 T02110161 52012
 
KAVX - Avalon, California, USA
Distance from station: WSW 35mi, 56km
Updated: Sun, 07-Aug-2022 7:51am PDT
Clear
Clear
 Wind from E
Wind: E 3 mph , 6 km/h
Temperature: 84°F , 29°C
Dew Point: 27°F , -3°C
Humidity: 12%
Barometer: 29.97 inHg , 1014.9 hPa
Clouds: Clear
Visibility: 10 miles , 16 km
2022/08/07 14:51 KAVX 071451Z AUTO 09003KT 10SM CLR 29/M03 A2997 RMK AO2 SLP115 T02941033 50013